createdAt,value
2023-02-24T00:00:26.167Z,1.96
2023-02-24T00:02:52.687Z,1.89
2023-02-24T00:05:19.304Z,1.90
2023-02-24T00:07:45.785Z,1.89
2023-02-24T00:10:19.317Z,1.89
2023-02-24T00:12:49.436Z,1.85
2023-02-24T00:15:16.068Z,1.85
2023-02-24T00:17:45.428Z,1.88
2023-02-24T00:20:12.402Z,1.85
2023-02-24T00:22:41.929Z,1.82
2023-02-24T00:25:08.568Z,1.82
2023-02-24T00:27:35.148Z,1.83
2023-02-24T00:30:01.928Z,1.84
2023-02-24T00:32:28.869Z,1.77
2023-02-24T00:34:55.852Z,1.73
2023-02-24T00:37:24.029Z,1.69
2023-02-24T00:39:51.001Z,1.68
2023-02-24T00:42:17.764Z,1.67
2023-02-24T00:44:45.158Z,1.71
2023-02-24T00:47:12.150Z,1.71
2023-02-24T00:49:42.483Z,1.72
2023-02-24T00:52:13.944Z,1.71
2023-02-24T00:54:40.908Z,1.69
2023-02-24T00:57:10.519Z,1.67
2023-02-24T00:59:37.793Z,1.67
2023-02-24T01:02:07.028Z,1.62
2023-02-24T01:04:33.941Z,1.61
2023-02-24T01:07:01.089Z,1.58
2023-02-24T01:09:28.872Z,1.55
2023-02-24T01:12:14.134Z,1.51
2023-02-24T01:14:40.691Z,1.51
2023-02-24T01:17:07.895Z,1.56
2023-02-24T01:19:34.922Z,1.57
2023-02-24T01:22:02.816Z,1.56
2023-02-24T01:24:32.329Z,1.55
2023-02-24T01:26:58.982Z,1.54
2023-02-24T01:29:26.044Z,1.52
2023-02-24T01:31:52.972Z,1.51
2023-02-24T01:34:19.615Z,1.51
2023-02-24T01:36:46.085Z,1.51
2023-02-24T01:39:13.592Z,1.56
2023-02-24T01:41:41.355Z,1.59
2023-02-24T01:44:09.114Z,1.62
2023-02-24T01:46:39.772Z,1.61
2023-02-24T01:49:08.334Z,1.60
2023-02-24T01:51:36.758Z,1.61
2023-02-24T01:54:04.353Z,1.63
2023-02-24T01:56:31.227Z,1.64
2023-02-24T01:58:59.166Z,1.65
2023-02-24T02:01:25.719Z,1.62
2023-02-24T02:03:56.200Z,1.57
2023-02-24T02:06:22.733Z,1.58
2023-02-24T02:08:49.559Z,1.59
2023-02-24T02:11:23.206Z,1.56
2023-02-24T02:13:50.758Z,1.59
2023-02-24T02:16:41.541Z,1.60
2023-02-24T02:19:07.946Z,1.59
2023-02-24T02:21:55.446Z,1.59
2023-02-24T02:24:24.733Z,1.59
2023-02-24T02:26:58.332Z,1.60
2023-02-24T02:29:31.995Z,1.62
2023-02-24T02:32:17.465Z,1.62
2023-02-24T02:34:46.815Z,1.60
2023-02-24T02:37:27.547Z,1.60
2023-02-24T02:40:00.660Z,1.53
2023-02-24T02:42:30.249Z,1.54
2023-02-24T02:45:05.046Z,1.62
2023-02-24T02:47:41.769Z,1.62
2023-02-24T02:50:13.074Z,1.63
2023-02-24T02:52:44.713Z,1.68
2023-02-24T02:55:24.559Z,1.69
2023-02-24T02:57:53.319Z,1.71
2023-02-24T03:00:23.093Z,1.71
2023-02-24T03:02:56.013Z,1.70
2023-02-24T03:05:29.635Z,1.67
2023-02-24T03:07:58.089Z,1.70
2023-02-24T03:10:29.269Z,1.70
2023-02-24T03:13:00.067Z,1.75
2023-02-24T03:15:28.136Z,1.77
2023-02-24T03:17:58.206Z,1.79
2023-02-24T03:20:29.391Z,1.83
2023-02-24T03:22:59.324Z,1.84
2023-02-24T03:25:29.218Z,1.82
2023-02-24T03:27:58.975Z,1.79
2023-02-24T03:30:32.068Z,1.79
2023-02-24T03:33:23.782Z,1.82
2023-02-24T03:35:51.871Z,1.75
2023-02-24T03:38:18.766Z,1.72
2023-02-24T03:40:45.346Z,1.71
2023-02-24T03:43:16.884Z,1.77
2023-02-24T03:45:43.961Z,1.84
2023-02-24T03:48:12.080Z,1.87
2023-02-24T03:50:39.690Z,1.88
2023-02-24T03:53:30.529Z,1.90
2023-02-24T03:55:59.588Z,1.95
2023-02-24T03:58:35.228Z,2.00
2023-02-24T04:01:05.801Z,2.01
2023-02-24T04:03:39.639Z,2.03
2023-02-24T04:06:06.271Z,2.05
2023-02-24T04:08:37.921Z,2.06
2023-02-24T04:11:13.206Z,2.07
2023-02-24T04:14:01.076Z,2.07
2023-02-24T04:16:36.423Z,2.10
2023-02-24T04:19:05.438Z,2.14
2023-02-24T04:21:32.332Z,2.16
2023-02-24T04:24:01.264Z,2.17
2023-02-24T04:26:29.078Z,2.16
2023-02-24T04:28:56.705Z,2.08
2023-02-24T04:31:25.904Z,2.02
2023-02-24T04:33:53.423Z,2.02
2023-02-24T04:36:21.082Z,2.07
2023-02-24T04:38:48.197Z,2.11
2023-02-24T04:41:21.462Z,2.15
2023-02-24T04:43:49.356Z,2.18
2023-02-24T04:46:16.298Z,2.20
2023-02-24T04:48:42.734Z,2.20
2023-02-24T04:51:09.215Z,2.19
2023-02-24T04:53:38.123Z,2.20
2023-02-24T04:56:08.916Z,2.23
2023-02-24T04:58:39.372Z,2.28
2023-02-24T05:01:08.817Z,2.27
2023-02-24T05:03:36.101Z,2.26
2023-02-24T05:06:02.794Z,2.29
2023-02-24T05:08:30.357Z,2.35
2023-02-24T05:10:58.553Z,2.37
2023-02-24T05:13:28.046Z,2.35
2023-02-24T05:15:56.070Z,2.34
2023-02-24T05:18:24.034Z,2.31
2023-02-24T05:21:13.258Z,2.38
2023-02-24T05:23:44.150Z,2.40
2023-02-24T05:26:11.422Z,2.41
2023-02-24T05:28:40.550Z,2.43
2023-02-24T05:31:15.229Z,2.46
2023-02-24T05:33:45.389Z,2.48
2023-02-24T05:36:17.141Z,2.47
2023-02-24T05:38:44.167Z,2.48
2023-02-24T05:41:17.612Z,2.47
2023-02-24T05:43:48.214Z,2.49
2023-02-24T05:46:17.859Z,2.49
2023-02-24T05:48:44.623Z,2.46
2023-02-24T05:51:12.507Z,2.41
2023-02-24T05:53:42.412Z,2.29
2023-02-24T05:56:09.214Z,2.30
2023-02-24T05:58:39.350Z,2.26
2023-02-24T06:01:16.353Z,2.26
2023-02-24T06:03:46.739Z,2.29
2023-02-24T06:06:15.016Z,2.31
2023-02-24T06:08:50.090Z,2.36
2023-02-24T06:11:21.081Z,2.41
2023-02-24T06:13:47.965Z,2.42
2023-02-24T06:16:15.798Z,2.43
2023-02-24T06:18:42.879Z,2.48
2023-02-24T06:21:09.331Z,2.49
2023-02-24T06:23:35.765Z,2.54
2023-02-24T06:26:05.153Z,2.55
2023-02-24T06:28:33.509Z,2.61
2023-02-24T06:31:03.198Z,2.65
2023-02-24T06:33:31.275Z,2.68
2023-02-24T06:35:59.708Z,2.67
2023-02-24T06:38:26.135Z,2.69
2023-02-24T06:40:57.578Z,2.73
2023-02-24T06:43:24.086Z,2.73
2023-02-24T06:45:50.546Z,2.77
2023-02-24T06:48:17.026Z,2.81
2023-02-24T06:50:44.094Z,2.87
2023-02-24T06:53:16.983Z,2.88
2023-02-24T06:55:46.346Z,2.92
2023-02-24T06:58:16.731Z,2.94
2023-02-24T07:00:52.260Z,3.00
2023-02-24T07:03:19.251Z,3.05
2023-02-24T07:05:51.084Z,3.28
2023-02-24T07:08:18.188Z,3.38
2023-02-24T07:10:44.969Z,3.47
2023-02-24T07:13:13.564Z,3.51
2023-02-24T07:15:40.018Z,3.53
2023-02-24T07:18:14.804Z,3.60
2023-02-24T07:20:45.811Z,3.65
2023-02-24T07:23:16.645Z,3.75
2023-02-24T07:25:46.401Z,3.84
2023-02-24T07:28:13.795Z,3.91
2023-02-24T07:30:40.767Z,3.97
2023-02-24T07:33:07.713Z,4.03
2023-02-24T07:35:41.424Z,4.10
2023-02-24T07:38:08.157Z,4.16
2023-02-24T07:40:34.665Z,4.22
2023-02-24T07:43:01.509Z,4.29
2023-02-24T07:45:29.737Z,4.41
2023-02-24T07:47:56.594Z,4.56
2023-02-24T07:50:23.819Z,4.61
2023-02-24T07:52:50.465Z,4.69
2023-02-24T07:55:17.151Z,4.74
2023-02-24T07:57:46.747Z,4.83
2023-02-24T08:00:18.948Z,4.93
2023-02-24T08:02:49.759Z,4.97
2023-02-24T08:05:18.072Z,5.05
2023-02-24T08:07:49.810Z,5.09
2023-02-24T08:10:25.825Z,5.20
2023-02-24T08:12:54.514Z,5.24
2023-02-24T08:15:24.861Z,5.31
2023-02-24T08:17:59.483Z,5.37
2023-02-24T08:20:28.149Z,5.44
2023-02-24T08:22:55.252Z,5.49
2023-02-24T08:25:24.222Z,5.56
2023-02-24T08:28:08.958Z,5.61
2023-02-24T08:30:39.673Z,5.68
2023-02-24T08:33:07.922Z,5.74
2023-02-24T08:35:35.913Z,5.81
2023-02-24T08:38:05.522Z,5.88
2023-02-24T08:43:17.709Z,6.01
2023-02-24T08:45:45.336Z,6.08
2023-02-24T08:48:26.175Z,6.15
2023-02-24T08:50:53.852Z,6.20
2023-02-24T08:53:20.342Z,6.25
2023-02-24T08:55:51.759Z,6.26
2023-02-24T08:58:27.078Z,6.31
2023-02-24T09:00:59.166Z,6.34
2023-02-24T09:03:29.781Z,6.38
2023-02-24T09:06:06.794Z,6.43
2023-02-24T09:08:33.793Z,6.47
2023-02-24T09:11:01.070Z,6.53
2023-02-24T09:13:34.148Z,6.57
2023-02-24T09:16:02.227Z,6.62
2023-02-24T09:18:30.401Z,6.64
2023-02-24T09:21:15.904Z,6.67
2023-02-24T09:23:46.145Z,6.74
2023-02-24T09:26:14.102Z,6.73
2023-02-24T09:28:54.750Z,6.80
2023-02-24T09:31:24.363Z,6.77
2023-02-24T09:33:51.334Z,6.79
2023-02-24T09:36:42.615Z,6.82
2023-02-24T09:39:09.107Z,6.88
2023-02-24T09:44:36.317Z,6.87
2023-02-24T09:47:15.365Z,6.84
2023-02-24T09:53:02.920Z,6.88
2023-02-24T09:56:00.320Z,6.84
2023-02-24T09:58:57.938Z,6.86
2023-02-24T10:01:49.542Z,6.82
2023-02-24T10:04:37.759Z,6.78
2023-02-24T10:07:06.799Z,6.86
2023-02-24T10:12:27.825Z,6.93
2023-02-24T10:15:19.061Z,6.99
2023-02-24T10:17:55.422Z,7.02
2023-02-24T10:20:31.164Z,7.02
2023-02-24T10:23:09.807Z,7.07
2023-02-24T10:25:36.476Z,7.07
2023-02-24T10:28:15.310Z,7.11
2023-02-24T10:30:50.842Z,7.11
2023-02-24T10:33:27.439Z,7.11
2023-02-24T10:36:09.294Z,7.13
2023-02-24T10:38:37.159Z,7.15
2023-02-24T10:41:06.200Z,7.24
2023-02-24T10:43:39.224Z,7.30
2023-02-24T10:46:17.149Z,7.30
2023-02-24T10:48:50.977Z,7.38
2023-02-24T10:51:22.199Z,7.43
2023-02-24T10:54:08.471Z,7.47
2023-02-24T10:56:55.221Z,7.47
2023-02-24T10:59:24.833Z,7.50
2023-02-24T11:01:59.284Z,7.52
2023-02-24T11:05:04.314Z,7.63
2023-02-24T11:07:44.138Z,7.68
2023-02-24T11:10:13.872Z,7.71
2023-02-24T11:13:10.678Z,7.68
2023-02-24T11:16:10.069Z,7.79
2023-02-24T11:18:36.766Z,7.94
2023-02-24T11:21:04.996Z,8.05
2023-02-24T11:23:35.033Z,8.14
2023-02-24T11:26:10.882Z,8.22
2023-02-24T11:28:59.650Z,8.32
2023-02-24T11:31:37.544Z,8.41
2023-02-24T11:34:07.668Z,8.54
2023-02-24T11:36:34.080Z,8.68
2023-02-24T11:39:22.601Z,8.78
2023-02-24T11:41:53.216Z,8.91
2023-02-24T11:44:22.557Z,8.95
2023-02-24T11:46:52.601Z,8.98
2023-02-24T11:49:26.924Z,9.05
2023-02-24T11:51:54.585Z,9.11
2023-02-24T11:54:21.273Z,8.96
2023-02-24T11:56:55.765Z,9.03
2023-02-24T11:59:40.926Z,9.08
2023-02-24T12:02:29.015Z,9.13
2023-02-24T12:04:59.002Z,9.13
2023-02-24T12:07:29.350Z,9.12
2023-02-24T12:10:17.563Z,9.13
2023-02-24T12:13:07.613Z,9.20
2023-02-24T12:15:39.219Z,9.33
2023-02-24T12:18:13.652Z,9.32
2023-02-24T12:20:43.219Z,9.38
2023-02-24T12:23:12.392Z,9.49
2023-02-24T12:25:47.694Z,9.59
2023-02-24T12:28:21.433Z,9.67
2023-02-24T12:31:12.392Z,9.72
2023-02-24T12:33:56.463Z,9.70
2023-02-24T12:36:25.935Z,9.68
2023-02-24T12:39:11.175Z,9.64
2023-02-24T12:41:43.651Z,9.61
2023-02-24T12:44:29.226Z,9.45
2023-02-24T12:47:06.610Z,9.50
2023-02-24T12:49:53.499Z,9.51
2023-02-24T12:52:29.068Z,9.35
2023-02-24T12:55:05.952Z,9.38
2023-02-24T12:57:48.319Z,9.31
2023-02-24T13:00:38.156Z,9.32
2023-02-24T13:03:24.881Z,9.29
2023-02-24T13:06:00.144Z,9.04
2023-02-24T13:08:32.878Z,8.97
2023-02-24T13:11:15.504Z,8.93
2023-02-24T13:13:46.648Z,9.00
2023-02-24T13:16:13.283Z,9.10
2023-02-24T13:18:39.802Z,9.11
2023-02-24T13:21:15.243Z,8.95
2023-02-24T13:23:42.716Z,8.81
2023-02-24T13:26:10.419Z,8.70
2023-02-24T13:28:38.531Z,8.71
2023-02-24T13:31:05.061Z,8.70
2023-02-24T13:33:33.696Z,8.71
2023-02-24T13:36:09.008Z,8.73
2023-02-24T13:38:37.036Z,8.78
2023-02-24T13:41:20.305Z,8.80
2023-02-24T13:44:00.901Z,8.86
2023-02-24T13:46:30.169Z,8.91
2023-02-24T13:48:56.618Z,8.95
2023-02-24T13:51:41.790Z,8.86
2023-02-24T13:54:30.577Z,8.79
2023-02-24T13:57:01.647Z,8.77
2023-02-24T13:59:28.095Z,8.73
2023-02-24T14:01:59.460Z,8.68
2023-02-24T14:04:27.315Z,8.64
2023-02-24T14:06:56.743Z,8.54
2023-02-24T14:09:26.622Z,8.47
2023-02-24T14:12:13.293Z,8.52
2023-02-24T14:14:40.456Z,8.66
2023-02-24T14:17:06.889Z,8.67
2023-02-24T14:19:33.342Z,8.65
2023-02-24T14:22:00.097Z,8.71
2023-02-24T14:24:27.861Z,8.76
2023-02-24T14:26:56.495Z,8.81
2023-02-24T14:29:29.755Z,8.73
2023-02-24T14:31:56.840Z,8.73
2023-02-24T14:34:27.798Z,8.81
2023-02-24T14:36:56.080Z,8.90
2023-02-24T14:39:26.964Z,8.82
2023-02-24T14:42:05.028Z,8.69
2023-02-24T14:44:31.467Z,8.57
2023-02-24T14:46:58.910Z,8.44
2023-02-24T14:49:25.494Z,8.29
2023-02-24T14:52:00.339Z,8.28
2023-02-24T14:54:44.678Z,8.28
2023-02-24T14:57:12.780Z,8.31
2023-02-24T14:59:42.866Z,8.27
2023-02-24T15:02:19.613Z,8.25
2023-02-24T15:04:47.218Z,8.30
2023-02-24T15:07:22.410Z,8.35
2023-02-24T15:09:49.960Z,8.33
2023-02-24T15:12:21.742Z,8.25
2023-02-24T15:14:51.498Z,8.17
2023-02-24T15:17:20.607Z,7.90
2023-02-24T15:19:49.170Z,7.49
2023-02-24T15:22:39.432Z,7.26
2023-02-24T15:25:20.346Z,7.13
2023-02-24T15:28:05.538Z,6.79
2023-02-24T15:30:33.986Z,6.63
2023-02-24T15:33:19.013Z,6.53
2023-02-24T15:35:50.305Z,6.38
2023-02-24T15:38:24.291Z,6.30
2023-02-24T15:40:54.916Z,6.31
2023-02-24T15:43:38.419Z,6.27
2023-02-24T15:46:20.496Z,6.26
2023-02-24T15:48:48.990Z,6.28
2023-02-24T15:51:24.292Z,6.34
2023-02-24T15:53:50.757Z,6.37
2023-02-24T15:56:17.571Z,6.44
2023-02-24T15:58:44.398Z,6.46
2023-02-24T16:01:11.485Z,6.46
2023-02-24T16:03:38.366Z,6.47
2023-02-24T16:06:05.353Z,6.54
2023-02-24T16:08:31.989Z,6.60
2023-02-24T16:10:58.498Z,6.62
2023-02-24T16:13:25.606Z,6.65
2023-02-24T16:15:52.074Z,6.66
2023-02-24T16:18:22.168Z,6.60
2023-02-24T16:20:54.413Z,6.48
2023-02-24T16:23:22.341Z,6.37
2023-02-24T16:25:49.843Z,6.38
2023-02-24T16:28:18.103Z,6.45
2023-02-24T16:30:45.461Z,6.48
2023-02-24T16:33:16.021Z,6.49
2023-02-24T16:35:43.486Z,6.50
2023-02-24T16:38:15.155Z,6.52
2023-02-24T16:40:46.664Z,6.49
2023-02-24T16:43:16.046Z,6.41
2023-02-24T16:45:43.626Z,6.43
2023-02-24T16:48:16.018Z,6.43
2023-02-24T16:50:43.272Z,6.43
2023-02-24T16:53:14.135Z,6.42
2023-02-24T16:55:40.670Z,6.39
2023-02-24T16:58:07.139Z,6.36
2023-02-24T17:00:33.598Z,6.33
2023-02-24T17:03:00.582Z,6.32
2023-02-24T17:05:27.548Z,6.30
2023-02-24T17:07:55.522Z,6.27
2023-02-24T17:10:22.706Z,6.25
2023-02-24T17:12:49.187Z,6.21
2023-02-24T17:15:16.932Z,6.18
2023-02-24T17:17:43.488Z,6.13
2023-02-24T17:20:18.656Z,6.05
2023-02-24T17:22:45.241Z,5.96
2023-02-24T17:25:22.565Z,5.90
2023-02-24T17:27:49.079Z,5.87
2023-02-24T17:30:16.943Z,5.83
2023-02-24T17:32:43.501Z,5.77
2023-02-24T17:35:10.013Z,5.73
2023-02-24T17:37:36.477Z,5.66
2023-02-24T17:40:05.557Z,5.61
2023-02-24T17:42:33.085Z,5.56
2023-02-24T17:44:59.595Z,5.52
2023-02-24T17:47:26.066Z,5.53
2023-02-24T17:49:52.658Z,5.50
2023-02-24T17:52:19.369Z,5.49
2023-02-24T17:54:45.788Z,5.46
2023-02-24T17:57:12.294Z,5.41
2023-02-24T17:59:38.720Z,5.40
2023-02-24T18:02:06.145Z,5.34
2023-02-24T18:04:32.630Z,5.35
2023-02-24T18:06:59.201Z,5.34
2023-02-24T18:09:25.825Z,5.34
2023-02-24T18:11:52.331Z,5.36
2023-02-24T18:14:18.875Z,5.32
2023-02-24T18:16:45.437Z,5.30
2023-02-24T18:19:12.019Z,5.26
2023-02-24T18:21:38.617Z,5.26
2023-02-24T18:24:05.196Z,5.23
2023-02-24T18:26:31.774Z,5.21
2023-02-24T18:28:59.605Z,5.18
2023-02-24T18:31:27.736Z,5.10
2023-02-24T18:33:55.672Z,5.08
2023-02-24T18:36:22.465Z,5.03
2023-02-24T18:38:49.503Z,4.97
2023-02-24T18:41:18.835Z,4.89
2023-02-24T18:43:49.449Z,4.88
2023-02-24T18:46:16.892Z,4.84
2023-02-24T18:48:44.631Z,4.85
2023-02-24T18:51:11.803Z,4.86
2023-02-24T18:53:38.623Z,4.86
2023-02-24T18:56:09.582Z,4.84
2023-02-24T18:58:37.131Z,4.86
2023-02-24T19:01:13.168Z,4.84
2023-02-24T19:03:39.774Z,4.72
2023-02-24T19:06:06.302Z,4.74
2023-02-24T19:08:32.897Z,4.75
2023-02-24T19:10:59.321Z,4.78
2023-02-24T19:13:25.916Z,4.80
2023-02-24T19:15:52.416Z,4.78
2023-02-24T19:18:18.892Z,4.73
2023-02-24T19:20:45.564Z,4.76
2023-02-24T19:23:12.020Z,4.76
2023-02-24T19:25:38.536Z,4.76
2023-02-24T19:28:05.018Z,4.71
2023-02-24T19:30:31.911Z,4.75
2023-02-24T19:32:58.623Z,4.68
2023-02-24T19:35:26.454Z,4.71
2023-02-24T19:37:52.983Z,4.76
2023-02-24T19:40:19.564Z,4.78
2023-02-24T19:42:47.311Z,4.75
2023-02-24T19:45:13.778Z,4.74
2023-02-24T19:47:42.829Z,4.77
2023-02-24T19:50:10.854Z,4.65
2023-02-24T19:52:37.313Z,4.64
2023-02-24T19:55:03.875Z,4.64
2023-02-24T19:57:30.521Z,4.61
2023-02-24T19:59:56.950Z,4.68
2023-02-24T20:02:23.377Z,4.71
2023-02-24T20:04:49.819Z,4.72
2023-02-24T20:07:16.338Z,4.72
2023-02-24T20:09:43.035Z,4.70
2023-02-24T20:12:09.930Z,4.73
2023-02-24T20:14:36.359Z,4.81
2023-02-24T20:17:04.343Z,4.91
2023-02-24T20:19:32.948Z,5.01
2023-02-24T20:21:59.841Z,5.09
2023-02-24T20:24:26.499Z,5.16
2023-02-24T20:26:53.004Z,5.15
2023-02-24T20:29:20.856Z,5.14
2023-02-24T20:31:48.053Z,5.10
2023-02-24T20:34:16.596Z,5.09
2023-02-24T20:36:43.885Z,5.14
2023-02-24T20:39:12.512Z,5.21
2023-02-24T20:41:39.543Z,5.25
2023-02-24T20:44:07.147Z,5.23
2023-02-24T20:46:33.659Z,5.27
2023-02-24T20:49:05.159Z,5.30
2023-02-24T20:51:32.479Z,5.24
2023-02-24T20:53:59.093Z,5.26
2023-02-24T20:56:27.172Z,5.29
2023-02-24T20:58:57.048Z,5.31
2023-02-24T21:01:23.582Z,5.35
2023-02-24T21:03:50.684Z,5.38
2023-02-24T21:06:17.493Z,5.37
2023-02-24T21:08:44.344Z,5.41
2023-02-24T21:11:11.352Z,5.42
2023-02-24T21:13:42.596Z,5.41
2023-02-24T21:16:09.909Z,5.41
2023-02-24T21:18:36.971Z,5.42
2023-02-24T21:21:03.451Z,5.42
2023-02-24T21:23:30.757Z,5.42
2023-02-24T21:25:57.177Z,5.42
2023-02-24T21:28:23.613Z,5.44
2023-02-24T21:30:50.244Z,5.40
2023-02-24T21:33:17.672Z,5.39
2023-02-24T21:35:44.427Z,5.42
2023-02-24T21:38:10.840Z,5.48
2023-02-24T21:40:37.619Z,5.47
2023-02-24T21:43:05.766Z,5.38
2023-02-24T21:45:33.532Z,5.35
2023-02-24T21:47:59.962Z,5.37
2023-02-24T21:50:26.377Z,5.33
2023-02-24T21:52:52.833Z,5.32
2023-02-24T21:55:20.057Z,5.32
2023-02-24T21:57:46.648Z,5.25
2023-02-24T22:00:19.975Z,5.23
2023-02-24T22:02:50.479Z,5.24
2023-02-24T22:05:17.735Z,5.25
2023-02-24T22:07:44.800Z,5.22
2023-02-24T22:10:12.682Z,5.14
2023-02-24T22:12:39.199Z,5.15
2023-02-24T22:15:06.012Z,5.15
2023-02-24T22:17:33.800Z,5.15
2023-02-24T22:20:00.355Z,5.12
2023-02-24T22:22:26.827Z,5.10
2023-02-24T22:24:54.925Z,5.10
2023-02-24T22:27:21.895Z,4.99
2023-02-24T22:29:48.579Z,4.95
2023-02-24T22:32:15.482Z,4.92
2023-02-24T22:34:42.162Z,4.90
2023-02-24T22:37:08.721Z,4.85
2023-02-24T22:39:35.188Z,4.82
2023-02-24T22:42:01.627Z,4.81
2023-02-24T22:44:28.044Z,4.77
2023-02-24T22:46:54.607Z,4.76
2023-02-24T22:49:21.105Z,4.76
2023-02-24T22:51:47.554Z,4.76
2023-02-24T22:54:14.329Z,4.74
2023-02-24T22:56:40.741Z,4.70
2023-02-24T22:59:07.156Z,4.71
2023-02-24T23:01:35.907Z,4.68
2023-02-24T23:04:03.848Z,4.55
2023-02-24T23:06:30.995Z,4.38
2023-02-24T23:08:58.496Z,4.41
2023-02-24T23:11:27.869Z,4.49
2023-02-24T23:13:55.137Z,4.53
2023-02-24T23:16:23.566Z,4.50
2023-02-24T23:18:54.296Z,4.49
2023-02-24T23:21:22.596Z,4.43
2023-02-24T23:23:50.016Z,4.45
2023-02-24T23:26:18.089Z,4.47
2023-02-24T23:28:44.790Z,4.48
2023-02-24T23:31:16.987Z,4.51
2023-02-24T23:33:43.505Z,4.47
2023-02-24T23:36:10.052Z,4.48
2023-02-24T23:38:36.784Z,4.53
2023-02-24T23:41:06.985Z,4.56
2023-02-24T23:43:33.710Z,4.58
2023-02-24T23:46:03.309Z,4.68
2023-02-24T23:48:30.006Z,4.72
2023-02-24T23:50:57.379Z,4.78
2023-02-24T23:53:24.711Z,4.74
2023-02-24T23:55:51.203Z,4.71
2023-02-24T23:58:17.620Z,4.73
